Time;durP1;ratioP1;P1;durP2;ratioP2;P2;SDS_P1;SDS_P2;PMS_P1;PMS_P2;Temp;Humidity;BMP_temperature;BMP_pressure;BME280_temperature;BME280_humidity;BME280_pressure;Samples;Min_cycle;Max_cycle;Signal;HPM_P1;HPM_P2
2021/07/02 00:00:41;;;;;;;12.13;7.45;;;;;;;11.90;98.46;95707.69;5090612;28;20124;-83
2021/07/02 00:03:17;;;;;;;12.48;7.45;;;;;;;11.90;98.36;95691.09;5084602;28;20470;-83
2021/07/02 00:05:42;;;;;;;14.30;8.40;;;;;;;12.02;97.83;95698.69;5079735;28;20127;-83
2021/07/02 00:08:08;;;;;;;16.70;7.72;;;;;;;12.01;97.72;95691.84;5077903;28;20259;-82
2021/07/02 00:10:34;;;;;;;16.08;8.05;;;;;;;11.96;98.27;95690.81;5067905;28;20032;-82
2021/07/02 00:12:59;;;;;;;13.30;6.90;;;;;;;11.92;98.23;95689.78;5073090;28;20068;-82
2021/07/02 00:15:25;;;;;;;11.70;7.03;;;;;;;11.90;98.07;95686.59;5072803;28;20486;-82
2021/07/02 00:17:50;;;;;;;12.35;7.05;;;;;;;11.92;98.21;95689.78;5074744;28;20074;-82
2021/07/02 00:20:16;;;;;;;13.10;7.10;;;;;;;11.86;98.11;95682.94;5073441;28;20048;-83
2021/07/02 00:22:41;;;;;;;12.68;7.60;;;;;;;11.88;98.60;95687.94;5073169;28;20044;-83
2021/07/02 00:25:08;;;;;;;14.50;7.25;;;;;;;11.90;97.68;95691.88;5089505;28;20040;-83
2021/07/02 00:27:34;;;;;;;13.07;7.00;;;;;;;11.87;98.15;95687.16;5092821;28;20050;-83
2021/07/02 00:30:00;;;;;;;11.10;7.15;;;;;;;11.90;97.99;95686.59;5079459;28;20040;-83
2021/07/02 00:32:25;;;;;;;10.93;6.72;;;;;;;11.91;97.76;95698.72;5072758;28;20037;-82
2021/07/02 00:34:51;;;;;;;14.35;7.88;;;;;;;11.86;98.15;95685.56;5072021;28;20032;-82
2021/07/02 00:37:16;;;;;;;13.07;7.35;;;;;;;11.87;98.33;95671.31;5073402;28;20525;-83
2021/07/02 00:39:42;;;;;;;10.93;7.15;;;;;;;11.85;98.61;95673.47;5067138;28;20465;-83
2021/07/02 00:42:07;;;;;;;13.18;7.97;;;;;;;11.85;98.96;95684.00;5070702;28;20467;-82
2021/07/02 00:44:42;;;;;;;16.00;7.78;;;;;;;11.85;99.21;95678.75;5076242;28;20051;-82
2021/07/02 00:47:08;;;;;;;16.63;7.63;;;;;;;11.86;99.14;95680.28;5071509;28;20043;-82
2021/07/02 00:49:35;;;;;;;13.73;7.75;;;;;;;11.83;98.60;95680.06;5077517;28;20043;-83
2021/07/02 00:52:05;;;;;;;11.68;7.13;;;;;;;11.83;98.69;95675.56;5077273;28;20064;-83
2021/07/02 00:54:35;;;;;;;14.07;8.27;;;;;;;11.80;98.88;95670.84;5071960;28;20059;-83
2021/07/02 00:57:03;;;;;;;14.35;7.63;;;;;;;11.79;98.90;95669.25;5069450;28;20487;-83
2021/07/02 00:59:29;;;;;;;11.93;7.20;;;;;;;11.86;98.75;95669.75;5062016;28;20556;-83
2021/07/02 01:01:55;;;;;;;12.75;7.78;;;;;;;11.84;98.54;95666.59;5090575;28;20046;-83
2021/07/02 01:04:23;;;;;;;11.43;7.45;;;;;;;11.83;98.88;95665.03;5089826;28;20033;-83
2021/07/02 01:06:51;;;;;;;13.98;7.65;;;;;;;11.81;99.10;95661.88;5056603;28;20048;-83
2021/07/02 01:09:16;;;;;;;13.38;7.50;;;;;;;11.84;98.85;95666.59;5076291;28;20071;-83
2021/07/02 01:11:42;;;;;;;12.82;7.03;;;;;;;11.85;98.43;95657.63;5076368;28;20402;-84
2021/07/02 01:14:08;;;;;;;12.40;7.47;;;;;;;11.82;98.78;95663.44;5087613;28;20678;-83
2021/07/02 01:16:33;;;;;;;12.55;7.13;;;;;;;11.80;98.82;95655.03;5072996;28;20041;-83
2021/07/02 01:18:59;;;;;;;13.80;7.72;;;;;;;11.78;99.16;95657.16;5068190;28;20067;-83
2021/07/02 01:21:24;;;;;;;11.88;7.68;;;;;;;11.81;98.95;95656.59;5071223;28;20040;-83
2021/07/02 01:23:50;;;;;;;14.07;8.65;;;;;;;11.79;99.46;95666.63;5072339;28;20036;-83
2021/07/02 01:26:16;;;;;;;12.73;7.30;;;;;;;11.77;99.63;95655.56;5074477;28;20041;-82
2021/07/02 01:28:42;;;;;;;12.18;7.25;;;;;;;11.77;99.91;95655.56;5070388;28;20044;-82
2021/07/02 01:31:08;;;;;;;11.75;7.20;;;;;;;11.75;99.62;95657.69;5073312;28;20074;-83
2021/07/02 01:33:34;;;;;;;13.02;7.55;;;;;;;11.79;99.19;95661.34;5086942;28;20056;-82
2021/07/02 01:36:16;;;;;;;15.90;8.10;;;;;;;11.76;99.61;95654.00;5074347;28;20041;-83
2021/07/02 01:38:42;;;;;;;12.95;7.13;;;;;;;11.75;99.50;95647.13;5059504;28;20045;-82
2021/07/02 01:41:07;;;;;;;13.45;7.82;;;;;;;11.77;99.98;95660.84;5072403;28;20045;-82
2021/07/02 01:43:33;;;;;;;13.40;7.18;;;;;;;11.77;99.80;95655.56;5077374;28;20453;-83
2021/07/02 01:45:58;;;;;;;12.85;7.18;;;;;;;11.81;99.28;95656.59;5080534;28;20044;-82
2021/07/02 01:48:24;;;;;;;12.60;7.47;;;;;;;11.74;99.55;95645.56;5077807;28;20041;-83
2021/07/02 01:50:50;;;;;;;13.80;7.13;;;;;;;11.78;99.06;95646.63;5070096;28;20482;-83
2021/07/02 01:53:16;;;;;;;11.43;6.93;;;;;;;11.73;98.85;95649.25;5086737;28;20037;-83
2021/07/02 01:55:41;;;;;;;13.70;7.45;;;;;;;11.67;99.35;95650.38;5074552;28;20040;-82
2021/07/02 01:58:07;;;;;;;15.43;7.78;;;;;;;11.64;99.60;95650.88;5062867;28;20097;-82
2021/07/02 02:00:32;;;;;;;14.45;8.23;;;;;;;11.59;100.00;95655.16;5077413;28;20119;-83
2021/07/02 02:02:58;;;;;;;13.35;8.48;;;;;;;11.55;99.73;95648.03;5087225;28;20040;-83
2021/07/02 02:05:24;;;;;;;11.90;6.80;;;;;;;11.53;99.90;95648.31;5087916;28;20037;-83
2021/07/02 02:07:50;;;;;;;17.33;8.00;;;;;;;11.51;100.00;95637.25;5072028;28;20063;-83
2021/07/02 02:10:16;;;;;;;13.68;7.85;;;;;;;11.50;100.00;95656.75;5069761;28;20498;-82
2021/07/02 02:12:41;;;;;;;12.35;7.25;;;;;;;11.49;99.79;95649.91;5086227;28;20047;-82
2021/07/02 02:15:07;;;;;;;14.70;7.82;;;;;;;11.46;99.77;95645.19;5078029;28;20500;-82
2021/07/02 02:17:33;;;;;;;14.23;6.72;;;;;;;11.38;99.71;95648.41;5064524;28;20040;-82
2021/07/02 02:19:59;;;;;;;14.18;7.28;;;;;;;11.37;100.00;95646.81;5093537;28;20067;-82
2021/07/02 02:22:25;;;;;;;15.75;7.45;;;;;;;11.33;100.00;95656.31;5069867;28;20090;-83
2021/07/02 02:24:51;;;;;;;15.43;7.25;;;;;;;11.27;100.00;95658.97;5079075;28;20037;-82
2021/07/02 02:27:16;;;;;;;12.35;7.30;;;;;;;11.27;100.00;95648.41;5078940;28;20485;-82
2021/07/02 02:29:42;;;;;;;12.10;7.07;;;;;;;11.26;100.00;95657.41;5074196;28;20441;-83
2021/07/02 02:32:08;;;;;;;12.27;7.00;;;;;;;11.20;99.95;95652.41;5073597;28;20036;-82
2021/07/02 02:34:34;;;;;;;11.10;6.82;;;;;;;11.18;100.00;95651.91;5082778;28;20466;-82
2021/07/02 02:37:00;;;;;;;16.42;6.88;;;;;;;11.15;100.00;95655.84;5062794;28;20037;-82
2021/07/02 02:39:25;;;;;;;9.88;6.75;;;;;;;11.08;99.16;95655.34;5070957;28;20050;-82
2021/07/02 02:41:50;;;;;;;10.02;6.88;;;;;;;11.01;99.56;95649.59;5074017;28;20044;-82
2021/07/02 02:44:16;;;;;;;14.60;7.25;;;;;;;10.95;99.48;95650.63;5070696;28;20508;-83
2021/07/02 02:46:42;;;;;;;12.02;7.00;;;;;;;10.88;99.92;95646.44;5072195;28;20040;-82
2021/07/02 02:49:07;;;;;;;14.48;7.40;;;;;;;10.88;100.00;95650.94;5065898;28;20059;-82
2021/07/02 02:51:33;;;;;;;12.75;7.05;;;;;;;10.90;100.00;95651.44;5073740;28;20395;-82
2021/07/02 02:53:58;;;;;;;12.30;7.32;;;;;;;10.86;100.00;95653.84;5061512;28;20037;-82
2021/07/02 02:56:24;;;;;;;11.07;6.80;;;;;;;10.84;100.00;95655.16;5075953;28;20036;-82
2021/07/02 02:58:49;;;;;;;12.85;7.55;;;;;;;10.80;100.00;95649.63;5079357;28;20040;-82
2021/07/02 03:01:15;;;;;;;15.30;8.13;;;;;;;10.74;100.00;95651.47;5075514;28;20036;-82
2021/07/02 03:03:40;;;;;;;13.57;7.97;;;;;;;10.75;100.00;95647.00;5077920;28;20515;-82
2021/07/02 03:06:06;;;;;;;15.52;7.55;;;;;;;10.68;100.00;95647.28;5071449;28;20062;-82
2021/07/02 03:08:32;;;;;;;14.45;8.23;;;;;;;10.75;100.00;95653.06;5080351;28;20040;-82
2021/07/02 03:10:57;;;;;;;15.18;8.57;;;;;;;10.80;100.00;95649.63;5062104;28;20110;-82
2021/07/02 03:13:23;;;;;;;17.85;7.82;;;;;;;10.81;100.00;95651.22;5069580;28;20056;-82
2021/07/02 03:15:48;;;;;;;15.30;8.15;;;;;;;10.88;100.00;95661.47;5085310;28;20509;-82
2021/07/02 03:18:14;;;;;;;15.65;8.38;;;;;;;10.89;100.00;95663.84;5076702;28;20075;-82
2021/07/02 03:20:39;;;;;;;13.43;8.73;;;;;;;10.96;100.00;95668.03;5070478;28;20415;-82
2021/07/02 03:23:05;;;;;;;16.40;8.93;;;;;;;11.03;100.00;95660.63;5077563;28;20047;-83
2021/07/02 03:25:31;;;;;;;15.10;8.52;;;;;;;11.11;100.00;95654.81;5076932;28;20429;-82
2021/07/02 03:27:56;;;;;;;16.05;8.05;;;;;;;11.12;100.00;95656.41;5065438;28;20083;-83
2021/07/02 03:30:22;;;;;;;15.80;8.23;;;;;;;11.16;100.00;95654.81;5064936;28;20036;-83
2021/07/02 03:32:47;;;;;;;15.23;8.60;;;;;;;11.17;100.00;95658.22;5070207;28;20051;-82
2021/07/02 03:35:13;;;;;;;15.18;8.77;;;;;;;11.22;100.00;95669.53;5071236;28;20040;-82
2021/07/02 03:37:39;;;;;;;14.88;8.68;;;;;;;11.29;100.00;95650.00;5067913;28;20040;-82
2021/07/02 03:40:08;;;;;;;14.45;8.80;;;;;;;11.36;99.99;95650.50;5068294;28;20050;-82
2021/07/02 03:42:33;;;;;;;14.40;8.88;;;;;;;11.38;99.78;95653.66;5069712;28;20040;-82
2021/07/02 03:44:59;;;;;;;15.48;8.25;;;;;;;11.39;99.57;95649.97;5076753;28;20119;-82
2021/07/02 03:47:24;;;;;;;16.75;8.73;;;;;;;11.40;99.49;95656.81;5076984;28;20036;-82
2021/07/02 03:49:50;;;;;;;15.73;8.98;;;;;;;11.44;99.59;95663.13;5060695;28;20033;-83
2021/07/02 03:52:15;;;;;;;14.20;8.57;;;;;;;11.48;99.87;95647.53;5074497;28;20049;-82
2021/07/02 03:54:41;;;;;;;15.55;8.80;;;;;;;11.53;99.10;95656.22;5090699;28;20051;-82
2021/07/02 03:57:13;;;;;;;16.95;8.63;;;;;;;11.65;98.65;95653.28;5085131;28;20036;-82
2021/07/02 03:59:43;;;;;;;14.70;8.40;;;;;;;11.67;98.64;95650.38;5070210;28;20040;-82
2021/07/02 04:02:10;;;;;;;13.07;8.20;;;;;;;11.65;99.08;95668.28;5069044;28;20383;-82
2021/07/02 04:04:36;;;;;;;14.75;7.97;;;;;;;11.64;99.03;95650.88;5066871;28;20049;-78
2021/07/02 04:07:04;;;;;;;15.35;9.30;;;;;;;11.69;99.24;95656.91;5088031;28;20040;-78
2021/07/02 04:09:30;;;;;;;15.07;8.55;;;;;;;11.71;99.08;95654.00;5064088;28;20508;-75
2021/07/02 04:11:55;;;;;;;15.57;8.68;;;;;;;11.72;99.06;95655.59;5079473;28;20048;-79
2021/07/02 04:14:21;;;;;;;13.43;7.63;;;;;;;11.75;98.86;95652.41;5071504;28;20043;-78
2021/07/02 04:16:46;;;;;;;14.55;8.20;;;;;;;11.76;98.69;95659.25;5069183;28;20138;-78
2021/07/02 04:19:12;;;;;;;14.35;8.32;;;;;;;11.79;98.44;95663.97;5074111;28;20056;-78
2021/07/02 04:21:37;;;;;;;15.15;8.18;;;;;;;11.81;98.47;95661.88;5080056;28;20048;-78
2021/07/02 04:24:04;;;;;;;14.32;8.57;;;;;;;11.81;98.54;95667.16;5071144;28;20036;-78
2021/07/02 04:26:29;;;;;;;16.20;8.65;;;;;;;11.83;98.56;95672.94;5074161;28;20044;-77
2021/07/02 04:28:55;;;;;;;12.95;8.10;;;;;;;11.85;98.76;95673.47;5068769;28;20120;-78
2021/07/02 04:31:20;;;;;;;11.82;7.82;;;;;;;11.91;98.16;95672.34;5098909;28;20048;-78
2021/07/02 04:33:46;;;;;;;14.13;7.75;;;;;;;11.89;98.66;95679.75;5074440;28;20044;-78
2021/07/02 04:36:11;;;;;;;13.55;7.85;;;;;;;11.89;98.80;95674.47;5074002;28;20067;-78
2021/07/02 04:38:37;;;;;;;12.73;8.38;;;;;;;11.90;98.78;95670.78;5069035;28;20052;-78
2021/07/02 04:41:02;;;;;;;14.75;8.02;;;;;;;12.03;98.23;95679.19;5088985;28;20097;-78
2021/07/02 04:43:28;;;;;;;14.68;8.27;;;;;;;12.01;98.16;95676.00;5077671;28;20097;-78
2021/07/02 04:45:53;;;;;;;13.20;8.35;;;;;;;11.98;98.93;95673.94;5086898;28;20041;-78
2021/07/02 04:48:19;;;;;;;17.20;8.57;;;;;;;12.02;98.60;95667.03;5069507;28;20040;-78
2021/07/02 04:50:44;;;;;;;13.73;8.38;;;;;;;12.08;98.32;95677.28;5094730;28;20079;-78
2021/07/02 04:53:10;;;;;;;14.05;8.40;;;;;;;12.13;97.99;95681.75;5073094;28;20040;-78
2021/07/02 04:55:35;;;;;;;15.18;8.18;;;;;;;12.21;98.24;95669.81;5073888;28;20036;-79
2021/07/02 04:58:03;;;;;;;14.70;8.40;;;;;;;12.24;98.20;95675.34;5074862;28;20044;-78
2021/07/02 05:00:29;;;;;;;14.02;8.60;;;;;;;12.25;97.95;95670.84;5079057;28;20052;-78
2021/07/02 05:02:54;;;;;;;13.48;8.20;;;;;;;12.29;97.74;95672.63;5075249;28;20468;-78
2021/07/02 05:05:20;;;;;;;14.95;8.68;;;;;;;12.34;97.16;95665.75;5093356;28;20047;-77
2021/07/02 05:07:45;;;;;;;10.60;7.47;;;;;;;12.33;98.12;95672.13;5072562;28;20037;-78
2021/07/02 05:10:11;;;;;;;14.05;8.57;;;;;;;12.36;98.16;95666.28;5071803;28;20044;-78
2021/07/02 05:12:37;;;;;;;15.90;8.63;;;;;;;12.38;98.10;95674.69;5083896;28;20048;-77
2021/07/02 05:15:04;;;;;;;12.85;7.60;;;;;;;12.41;98.07;95674.13;5072475;28;20098;-77
2021/07/02 05:17:29;;;;;;;13.80;8.75;;;;;;;12.46;97.76;95676.75;5067857;28;20052;-77
2021/07/02 05:19:55;;;;;;;14.43;8.52;;;;;;;12.54;97.71;95673.53;5072643;28;20048;-77
2021/07/02 05:22:20;;;;;;;14.50;8.75;;;;;;;12.59;97.54;95676.09;5072726;28;20048;-78
2021/07/02 05:24:48;;;;;;;15.48;8.70;;;;;;;12.62;97.70;95675.53;5075753;28;20413;-78
2021/07/02 05:27:14;;;;;;;13.57;8.75;;;;;;;12.70;97.10;95686.56;5089569;28;20129;-78
2021/07/02 05:29:40;;;;;;;13.80;8.45;;;;;;;12.78;96.78;95683.31;5073405;28;20040;-77
2021/07/02 05:32:06;;;;;;;13.70;8.20;;;;;;;12.76;96.86;95685.47;5073812;28;20049;-78
2021/07/02 05:34:32;;;;;;;13.10;8.77;;;;;;;12.75;96.88;95679.38;5076916;28;20391;-78
2021/07/02 05:36:59;;;;;;;15.00;8.73;;;;;;;12.88;96.37;95683.22;5069596;28;20064;-77
2021/07/02 05:39:25;;;;;;;13.10;8.57;;;;;;;12.92;96.40;95694.81;5057495;28;20061;-78
2021/07/02 05:41:50;;;;;;;14.07;8.00;;;;;;;12.92;96.22;95688.75;5075370;28;20090;-78
2021/07/02 05:44:16;;;;;;;13.48;8.40;;;;;;;12.95;96.70;95693.47;5073810;28;20043;-78
2021/07/02 05:46:42;;;;;;;13.05;7.70;;;;;;;12.95;96.30;95688.97;5083733;28;20044;-77
2021/07/02 05:49:07;;;;;;;12.70;8.13;;;;;;;13.04;96.16;95696.28;5076831;28;20047;-78
2021/07/02 05:51:33;;;;;;;14.02;8.50;;;;;;;13.07;96.08;95701.00;5087062;28;20043;-77
2021/07/02 05:53:58;;;;;;;13.20;8.27;;;;;;;13.12;95.79;95699.09;5080333;28;20459;-78
2021/07/02 05:56:29;;;;;;;11.57;7.95;;;;;;;13.21;94.73;95699.28;5067321;28;20039;-78
2021/07/02 05:58:56;;;;;;;11.15;7.60;;;;;;;13.27;95.08;95706.06;5075258;28;20043;-78
2021/07/02 06:01:21;;;;;;;12.75;7.75;;;;;;;13.27;94.69;95706.06;5073747;28;20092;-78
2021/07/02 06:03:47;;;;;;;12.25;7.85;;;;;;;13.27;95.68;95711.34;5073320;28;20091;-77
2021/07/02 06:06:12;;;;;;;15.27;8.27;;;;;;;13.41;94.82;95705.44;5075076;28;20032;-77
2021/07/02 06:08:38;;;;;;;13.73;7.65;;;;;;;13.47;94.36;95714.88;5074546;28;20445;-77
2021/07/02 06:11:03;;;;;;;13.52;7.75;;;;;;;13.57;93.96;95712.09;5066826;28;20102;-78
2021/07/02 06:13:29;;;;;;;12.60;7.30;;;;;;;13.59;93.95;95717.91;5071123;28;20123;-77
2021/07/02 06:15:54;;;;;;;11.75;7.85;;;;;;;13.68;93.25;95710.91;5074616;28;20047;-78
2021/07/02 06:18:20;;;;;;;11.48;7.03;;;;;;;13.77;93.91;95718.22;5087971;28;20064;-78
2021/07/02 06:20:51;;;;;;;14.98;7.53;;;;;;;13.82;93.92;95716.31;5074041;28;20036;-77
2021/07/02 06:23:17;;;;;;;11.63;7.80;;;;;;;13.93;92.66;95727.53;5072882;28;20040;-78
2021/07/02 06:25:42;;;;;;;13.32;7.63;;;;;;;14.04;92.28;95728.97;5079328;28;20198;-78
2021/07/02 06:28:08;;;;;;;11.98;7.32;;;;;;;14.15;88.58;95728.81;5071142;28;20107;-77
2021/07/02 06:30:34;;;;;;;12.27;7.13;;;;;;;14.29;89.63;95723.59;5073700;28;20111;-77
2021/07/02 06:32:59;;;;;;;14.77;7.70;;;;;;;14.33;86.94;95728.03;5080876;28;20040;-77
2021/07/02 06:35:25;;;;;;;10.13;6.90;;;;;;;14.41;86.81;95731.09;5075892;28;20111;-78
2021/07/02 06:37:50;;;;;;;14.35;6.88;;;;;;;14.41;87.20;95731.91;5084812;28;20265;-77
2021/07/02 06:40:17;;;;;;;11.13;6.75;;;;;;;14.43;86.92;95728.97;5066798;28;20080;-78
2021/07/02 06:42:43;;;;;;;12.30;7.03;;;;;;;14.58;84.94;95728.69;5080562;28;20040;-78
2021/07/02 06:45:11;;;;;;;15.15;7.28;;;;;;;14.53;85.31;95726.16;5074747;28;20040;-78
2021/07/02 06:47:52;;;;;;;14.02;6.55;;;;;;;14.67;83.82;95724.38;5070768;28;20244;-77
2021/07/02 06:50:18;;;;;;;10.68;6.80;;;;;;;14.72;82.03;95726.94;5071862;28;20410;-78
2021/07/02 06:52:43;;;;;;;12.77;6.85;;;;;;;14.69;83.21;95726.72;5081959;28;20045;-78
2021/07/02 06:55:09;;;;;;;10.10;6.60;;;;;;;14.77;84.95;95722.59;5089671;28;20071;-78
2021/07/02 06:57:35;;;;;;;12.50;6.95;;;;;;;14.65;81.59;95729.19;5074284;28;20122;-78
2021/07/02 07:00:03;;;;;;;13.95;6.70;;;;;;;14.77;82.37;95730.56;5074615;28;20044;-78
2021/07/02 07:02:28;;;;;;;10.20;6.75;;;;;;;14.79;83.33;95731.84;5078682;28;20566;-78
2021/07/02 07:04:54;;;;;;;11.80;7.05;;;;;;;14.93;81.99;95731.88;5074132;28;20060;-78
2021/07/02 07:07:20;;;;;;;10.40;5.93;;;;;;;14.83;79.29;95732.06;5070592;28;20444;-77
2021/07/02 07:09:46;;;;;;;11.60;6.00;;;;;;;14.93;79.18;95737.19;5076752;28;20037;-77
2021/07/02 07:12:11;;;;;;;11.90;6.10;;;;;;;14.81;79.03;95728.91;5072974;28;20414;-78
2021/07/02 07:14:37;;;;;;;9.75;6.22;;;;;;;14.79;79.98;95736.38;5071538;28;20044;-77
2021/07/02 07:17:04;;;;;;;10.50;6.15;;;;;;;15.04;79.14;95741.25;5080213;28;20094;-78
2021/07/02 07:19:30;;;;;;;12.20;6.63;;;;;;;15.03;78.52;95737.00;5072383;28;20563;-77
2021/07/02 07:21:57;;;;;;;15.10;6.90;;;;;;;15.09;81.22;95734.28;5077587;28;20044;-76
2021/07/02 07:24:22;;;;;;;10.35;6.53;;;;;;;15.20;81.09;95735.66;5091074;28;20037;-77
2021/07/02 07:26:48;;;;;;;12.00;6.35;;;;;;;15.21;79.76;95731.91;5073479;28;20040;-77
2021/07/02 07:29:14;;;;;;;16.00;6.55;;;;;;;15.23;79.59;95738.50;5078520;28;20037;-78
2021/07/02 07:31:39;;;;;;;12.95;6.90;;;;;;;15.28;80.16;95737.63;5065207;28;20041;-77
2021/07/02 07:34:05;;;;;;;15.40;6.32;;;;;;;15.33;78.85;95732.25;5071959;28;20421;-78
2021/07/02 07:36:32;;;;;;;13.90;6.57;;;;;;;15.39;80.14;95739.00;5074061;28;20406;-77
2021/07/02 07:38:58;;;;;;;10.35;6.45;;;;;;;15.35;78.39;95738.03;5063987;28;20511;-78
2021/07/02 07:41:24;;;;;;;9.55;5.72;;;;;;;15.38;77.45;95740.09;5071808;28;20086;-78
2021/07/02 07:43:50;;;;;;;11.90;6.22;;;;;;;15.48;78.48;95747.06;5073962;28;20495;-77
2021/07/02 07:46:16;;;;;;;8.95;5.80;;;;;;;15.52;74.83;95736.66;5071251;28;20067;-77
2021/07/02 07:48:42;;;;;;;11.05;6.43;;;;;;;15.46;75.46;95743.13;5081235;28;20040;-78
2021/07/02 07:53:51;;;;;;;10.83;6.10;;;;;;;15.40;73.64;95740.59;5088831;28;20092;-77
2021/07/02 07:56:16;;;;;;;9.52;5.95;;;;;;;15.23;73.91;95740.38;5080296;28;20273;-76
2021/07/02 07:58:42;;;;;;;10.73;6.10;;;;;;;15.07;74.92;95748.59;5079265;28;20040;-78
2021/07/02 08:01:09;;;;;;;9.85;6.30;;;;;;;15.11;76.21;95753.31;5076184;28;20048;-78
2021/07/02 08:03:35;;;;;;;10.77;6.18;;;;;;;15.20;78.31;95751.56;5076683;28;20041;-78
2021/07/02 08:06:00;;;;;;;10.48;5.88;;;;;;;15.41;79.39;95751.97;5069514;28;20494;-78
2021/07/02 08:08:26;;;;;;;11.68;6.93;;;;;;;15.66;75.43;95737.44;5087024;28;20043;-77
2021/07/02 08:10:51;;;;;;;10.48;6.38;;;;;;;15.96;74.24;95745.91;5081910;28;20036;-77
2021/07/02 08:13:17;;;;;;;12.77;6.28;;;;;;;15.91;71.31;95743.34;5093991;28;20100;-80
2021/07/02 08:15:43;;;;;;;12.52;6.18;;;;;;;15.82;73.28;95745.13;5077594;28;20509;-79
2021/07/02 08:18:09;;;;;;;10.77;6.00;;;;;;;16.08;72.92;95748.81;5075999;28;20033;-81
2021/07/02 08:20:36;;;;;;;12.48;6.30;;;;;;;15.83;72.89;95752.00;5078557;28;20090;-79
2021/07/02 08:23:02;;;;;;;10.90;5.75;;;;;;;15.90;72.08;95749.72;5078896;28;20037;-79
2021/07/02 08:25:28;;;;;;;10.57;6.28;;;;;;;15.74;72.84;95750.00;5082087;28;20052;-79
2021/07/02 08:30:38;;;;;;;11.77;6.03;;;;;;;16.03;72.41;95746.28;5071318;28;20045;-80
2021/07/02 08:33:03;;;;;;;10.05;5.93;;;;;;;15.94;73.88;95743.53;5078606;28;20060;-80
2021/07/02 08:35:29;;;;;;;10.05;6.20;;;;;;;16.16;73.90;95743.88;5099724;28;20041;-80
2021/07/02 08:37:55;;;;;;;9.43;6.10;;;;;;;16.33;72.93;95749.34;5096272;28;20044;-78
2021/07/02 08:40:22;;;;;;;9.80;5.90;;;;;;;16.47;71.98;95745.88;5079951;28;20036;-79
2021/07/02 08:42:48;;;;;;;12.82;6.25;;;;;;;16.43;71.57;95749.13;5108739;28;20411;-80
2021/07/02 08:45:14;;;;;;;14.30;6.45;;;;;;;16.58;72.56;95755.16;5081736;28;20037;-80
2021/07/02 08:47:41;;;;;;;10.95;7.00;;;;;;;16.65;69.82;95755.53;5085654;28;20047;-79
2021/07/02 08:50:07;;;;;;;11.07;6.47;;;;;;;16.43;71.67;95759.75;5082115;28;20048;-79
2021/07/02 08:52:36;;;;;;;10.35;6.57;;;;;;;16.45;72.90;95757.56;5107483;28;20040;-80
2021/07/02 08:55:03;;;;;;;11.73;6.57;;;;;;;16.49;72.30;95756.97;5085109;28;20037;-79
2021/07/02 08:57:30;;;;;;;13.07;6.72;;;;;;;16.70;74.12;95747.44;5073162;28;20071;-79
2021/07/02 08:59:56;;;;;;;12.45;6.25;;;;;;;16.88;75.52;95742.25;5080854;28;20047;-79
2021/07/02 09:02:30;;;;;;;11.70;6.28;;;;;;;16.69;71.54;95745.84;5082771;28;20036;-78
2021/07/02 09:04:57;;;;;;;11.32;6.28;;;;;;;17.13;68.65;95738.16;5074144;28;20040;-80
2021/07/02 09:07:23;;;;;;;12.20;6.30;;;;;;;17.20;67.90;95748.38;5088389;28;20042;-81
2021/07/02 09:10:06;;;;;;;14.00;6.63;;;;;;;17.08;69.97;95744.41;5074016;28;20040;-79
2021/07/02 09:12:35;;;;;;;10.13;6.22;;;;;;;16.87;70.22;95748.66;5066592;28;20414;-81
2021/07/02 09:15:05;;;;;;;14.40;6.07;;;;;;;17.03;69.80;95743.75;5076618;28;20452;-80
2021/07/02 09:17:51;;;;;;;10.88;6.65;;;;;;;17.12;70.77;95748.03;5075850;28;20045;-80
2021/07/02 09:20:19;;;;;;;11.38;6.72;;;;;;;17.18;71.27;95745.22;5068986;28;20062;-80
2021/07/02 09:22:56;;;;;;;11.27;6.70;;;;;;;17.28;71.37;95744.97;5084876;28;20040;-79
2021/07/02 09:25:23;;;;;;;11.35;6.28;;;;;;;17.15;68.92;95749.28;5080797;28;20418;-81
2021/07/02 09:27:55;;;;;;;10.05;6.40;;;;;;;17.13;67.77;95738.94;5061538;28;20067;-80
2021/07/02 09:30:25;;;;;;;10.07;6.65;;;;;;;17.37;67.11;95748.47;5076517;28;20087;-81
2021/07/02 09:32:53;;;;;;;12.65;6.20;;;;;;;17.58;66.96;95737.25;5092726;28;20044;-82
2021/07/02 09:35:21;;;;;;;9.55;6.47;;;;;;;17.46;66.74;95741.28;5082994;28;20037;-79
2021/07/02 09:40:19;;;;;;;9.45;5.97;;;;;;;17.54;64.87;95741.63;5073866;28;20048;-81
2021/07/02 09:42:46;;;;;;;11.60;6.53;;;;;;;17.58;64.60;95742.56;5075019;28;20085;-82
2021/07/02 09:45:13;;;;;;;11.50;6.10;;;;;;;17.78;64.94;95725.25;5076503;28;20068;-79
2021/07/02 09:47:41;;;;;;;8.40;5.90;;;;;;;18.13;66.05;95736.78;5074726;28;20062;-82
2021/07/02 09:50:29;;;;;;;10.18;6.05;;;;;;;18.42;63.06;95743.38;5077601;28;20036;-82
2021/07/02 09:53:01;;;;;;;11.93;6.25;;;;;;;18.52;65.17;95727.06;5067900;28;20040;-81
2021/07/02 09:55:31;;;;;;;11.60;5.93;;;;;;;18.49;63.48;95738.34;5077052;28;20064;-81
2021/07/02 09:58:06;;;;;;;9.85;6.07;;;;;;;18.44;63.21;95749.16;5069850;28;20033;-81
2021/07/02 10:00:47;;;;;;;11.38;6.07;;;;;;;18.23;61.12;95749.00;5058152;28;20537;-81
2021/07/02 10:03:14;;;;;;;11.43;6.40;;;;;;;18.33;63.15;95742.56;5073481;28;20048;-81
2021/07/02 10:06:01;;;;;;;10.27;5.90;;;;;;;18.15;60.42;95747.91;5067984;28;20387;-81
2021/07/02 10:08:29;;;;;;;11.88;6.57;;;;;;;17.92;62.96;95746.47;5073914;28;20033;-79
2021/07/02 10:10:57;;;;;;;9.98;5.93;;;;;;;18.44;60.67;95746.50;5066446;28;20039;-81
2021/07/02 10:13:26;;;;;;;11.70;6.55;;;;;;;18.62;60.92;95741.16;5076024;28;20040;-81
2021/07/02 10:15:53;;;;;;;11.57;6.20;;;;;;;18.85;60.88;95744.44;5088632;28;20040;-82
2021/07/02 10:18:20;;;;;;;9.50;5.45;;;;;;;19.11;57.09;95741.75;5085547;28;20041;-81
2021/07/02 10:20:46;;;;;;;8.50;5.88;;;;;;;19.01;58.73;95747.41;5075839;28;20044;-80
2021/07/02 10:23:24;;;;;;;9.35;5.82;;;;;;;18.81;57.45;95738.94;5073920;28;20045;-79
2021/07/02 10:25:52;;;;;;;8.45;5.60;;;;;;;18.70;56.32;95743.84;5074608;28;20033;-79
2021/07/02 10:28:19;;;;;;;9.38;5.95;;;;;;;18.28;57.26;95738.19;5071217;28;20472;-79
2021/07/02 10:30:45;;;;;;;23.63;6.15;;;;;;;18.31;57.78;95742.13;5077282;28;20044;-79
2021/07/02 10:33:12;;;;;;;8.43;5.60;;;;;;;18.86;57.31;95746.81;5075251;28;20413;-78
2021/07/02 10:35:43;;;;;;;9.02;5.72;;;;;;;18.73;58.14;95746.97;5088175;28;20047;-78
2021/07/02 10:38:10;;;;;;;8.35;5.57;;;;;;;18.96;55.83;95744.91;5076788;28;20040;-79
2021/07/02 10:40:41;;;;;;;9.30;5.28;;;;;;;19.56;55.03;95738.56;5077829;28;20041;-79
2021/07/02 10:43:15;;;;;;;8.73;5.53;;;;;;;20.05;55.13;95734.72;5076321;28;20040;-80
2021/07/02 10:46:13;;;;;;;9.15;5.88;;;;;;;20.91;53.24;95737.81;5084461;28;20041;-80
2021/07/02 10:48:49;;;;;;;8.43;5.68;;;;;;;21.46;50.17;95729.66;5075194;28;21779;-81
2021/07/02 10:51:30;;;;;;;11.77;5.20;;;;;;;21.48;49.35;95732.78;5076258;28;20040;-81
2021/07/02 10:57:01;;;;;;;11.02;5.47;;;;;;;21.34;51.04;95732.34;5079990;28;20044;-81
2021/07/02 10:59:42;;;;;;;10.35;5.53;;;;;;;21.92;52.80;95724.19;5070454;28;20056;-84
2021/07/02 11:04:44;;;;;;;8.45;5.75;;;;;;;21.45;48.27;95726.22;5078264;28;20041;-80
2021/07/02 11:07:19;;;;;;;8.98;5.60;;;;;;;20.47;49.82;95744.63;5077865;28;21642;-79
2021/07/02 11:09:51;;;;;;;9.43;5.50;;;;;;;19.86;53.52;95743.94;5075801;28;20462;-81
2021/07/02 11:12:17;;;;;;;9.02;5.88;;;;;;;19.56;52.52;95732.47;5087278;28;20439;-79
2021/07/02 11:14:55;;;;;;;9.60;6.15;;;;;;;19.67;53.83;95733.66;5080715;28;20044;-82
2021/07/02 11:17:30;;;;;;;13.45;5.40;;;;;;;20.50;50.46;95738.63;5089343;28;20490;-82
2021/07/02 11:20:12;;;;;;;10.25;5.43;;;;;;;20.65;53.41;95734.59;5090913;28;20047;-78
2021/07/02 11:22:49;;;;;;;10.02;5.65;;;;;;;21.13;53.29;95727.06;5075537;28;20188;-78
2021/07/02 11:25:28;;;;;;;8.63;5.75;;;;;;;22.15;48.64;95727.97;5077906;28;20084;-80
2021/07/02 11:27:55;;;;;;;8.60;5.85;;;;;;;22.34;51.29;95728.50;5072988;28;20049;-79
2021/07/02 11:30:25;;;;;;;11.18;5.57;;;;;;;22.20;46.77;95729.63;5078917;28;20041;-77
2021/07/02 11:32:53;;;;;;;8.98;6.00;;;;;;;22.17;48.01;95719.59;5081509;28;20036;-79
2021/07/02 11:35:30;;;;;;;9.27;5.72;;;;;;;22.54;46.10;95716.81;5083540;28;20067;-79
2021/07/02 11:38:01;;;;;;;12.50;5.60;;;;;;;23.16;44.05;95719.22;5087093;28;20425;-79